logo tempoitalia

Diretta Meteo Boysen/Thermopol, Stati Uniti (USA)lunedì 31 agosto ore 00:35

Mappa
Sereno 15 °C Sereno 24 Ore: T.min 10 T.max 20
Ponente Sud-Ovest Km/h 24 Punto di rugiada: -12 °C Umidità: 14% Visibilità: 10 Km
Il sole sorge alle: 06:36 Il sole tramonta alle: 19:50
31 Agosto 2026 00:35 tempo osservato: Sereno Sereno 15 14 1024 vento: Nord SO 24
31 Agosto 2026 00:15 tempo osservato: Sereno Sereno 15 13 1024 vento: Nord SO 16.7
30 Agosto 2026 23:55 tempo osservato: Sereno Sereno 15 14 1024 vento: Nord SO 14.8
30 Agosto 2026 23:35 tempo osservato: Sereno Sereno 15 15 1024 vento: Nord O/SO 18.5
30 Agosto 2026 23:15 tempo osservato: Sereno Sereno 13 20 1024 vento: Nord O 20.3
30 Agosto 2026 22:55 tempo osservato: Sereno Sereno 15 18 1024 vento: Nord SO 18.5
30 Agosto 2026 22:35 tempo osservato: Sereno Sereno 16 15 1024 vento: Nord SO 25.9
30 Agosto 2026 22:15 tempo osservato: Sereno Sereno 16 15 1023 vento: Nord SO 27.8
30 Agosto 2026 21:55 tempo osservato: Sereno Sereno 16 15 1023 vento: Nord SO 27.8
30 Agosto 2026 21:35 tempo osservato: Sereno Sereno 16 14 1023 vento: Nord SO 31.5
30 Agosto 2026 21:15 tempo osservato: Sereno Sereno 16 15 1023 vento: Nord SO 31.5
30 Agosto 2026 20:55 tempo osservato: Sereno Sereno 16 15 1023 vento: Nord SO 27.8
30 Agosto 2026 20:35 tempo osservato: Sereno Sereno 16 18 1023 vento: Nord SO 25.9
30 Agosto 2026 20:15 tempo osservato: Sereno Sereno 16 19 1023 vento: Nord SO 18.5
30 Agosto 2026 19:55 tempo osservato: Sereno Sereno 17 17 1023 vento: Nord SO 24
30 Agosto 2026 19:35 tempo osservato: Sereno Sereno 17 18 1022 vento: Nord SO 29.6
30 Agosto 2026 19:15 tempo osservato: Sereno Sereno 18 17 1022 vento: Nord SO 27.8
30 Agosto 2026 18:55 tempo osservato: Sereno Sereno 18 17 1022 vento: Nord O/SO 27.8
30 Agosto 2026 18:35 tempo osservato: Sereno Sereno 19 16 1022 vento: Nord SO 24
30 Agosto 2026 18:15 tempo osservato: Sereno Sereno 19 16 1022 vento: Nord SO 33.3
30 Agosto 2026 17:55 tempo osservato: Sereno Sereno 20 15 1022 vento: Nord S/SO 33.3
30 Agosto 2026 17:35 tempo osservato: Sereno Sereno 20 16 1022 vento: Nord SO 27.8
30 Agosto 2026 17:15 tempo osservato: Sereno Sereno 20 16 1022 vento: Nord S/SO 42.6
30 Agosto 2026 16:55 tempo osservato: Sereno Sereno 20 16 1022 vento: Nord SO 29.6
30 Agosto 2026 16:35 tempo osservato: Sereno Sereno 20 24 1022 vento: Nord S/SE 29.6
30 Agosto 2026 16:15 tempo osservato: Sereno Sereno 19 27 1022 vento: Nord SE 24
30 Agosto 2026 15:55 tempo osservato: Nuvoloso Nuvoloso 18 27 1022 vento: Nord S/SE 31.5
30 Agosto 2026 15:35 tempo osservato: Nuvoloso Nuvoloso 18 27 1022 vento: Nord SE 33.3
30 Agosto 2026 15:15 tempo osservato: Sereno Sereno 17 29 1022 vento: Nord S/SE 20.3
30 Agosto 2026 14:55 tempo osservato: Sereno Sereno 17 27 1022 vento: Nord S/SE 22.2
30 Agosto 2026 14:35 tempo osservato: Sereno Sereno 17 27 1023 vento: Nord S/SE 14.8
30 Agosto 2026 14:15 tempo osservato: Sereno Sereno 18 25 1022 vento: Nord S/SE 22.2
30 Agosto 2026 13:55 tempo osservato: Sereno Sereno 18 29 1022 vento: Nord S/SE 35.2
30 Agosto 2026 13:35 tempo osservato: Sereno Sereno 17 33 1022 vento: Nord S/SE 31.5
30 Agosto 2026 13:15 tempo osservato: Sereno Sereno 16 33 1022 vento: Nord S 38.8
30 Agosto 2026 12:55 tempo osservato: Sereno Sereno 17 31 1022 vento: Nord S 38.8
30 Agosto 2026 12:35 tempo osservato: Nuvoloso Nuvoloso 16 33 1023 vento: Nord S 20.3
30 Agosto 2026 12:15 tempo osservato: Nuvoloso Nuvoloso 16 36 1023 vento: Nord S 25.9
30 Agosto 2026 11:55 tempo osservato: Sereno Sereno 15 41 1023 vento: Nord SO 35.2
30 Agosto 2026 11:35 tempo osservato: Nuvoloso Nuvoloso 15 41 1023 vento: Nord S/SO 40.7
30 Agosto 2026 11:15 tempo osservato: Nuvoloso Nuvoloso 15 51 1023 vento: Nord S/SO 33.3
30 Agosto 2026 10:55 tempo osservato: Sereno Sereno 15 51 1022 vento: Nord S/SO 31.5
30 Agosto 2026 10:35 tempo osservato: Sereno Sereno 14 58 1022 vento: Nord SE 16.7
30 Agosto 2026 10:15 tempo osservato: Sereno Sereno 13 62 1023 vento: Nord S/SE 20.3
30 Agosto 2026 09:55 tempo osservato: Sereno Sereno 13 66 1022 vento: Nord SE 25.9
30 Agosto 2026 09:35 tempo osservato: Sereno Sereno 13 62 1022 vento: Nord SE 24
30 Agosto 2026 09:15 tempo osservato: Sereno Sereno 15 44 1022 vento: Nord S/SE 18.5
30 Agosto 2026 08:55 tempo osservato: Sereno Sereno 15 44 1022 vento: Nord S/SE 14.8
30 Agosto 2026 08:35 tempo osservato: Sereno Sereno 15 44 1022 vento: Nord S/SE 20.3
30 Agosto 2026 08:15 tempo osservato: Sereno Sereno 14 50 1022 vento: Nord S/SE 24
30 Agosto 2026 07:55 tempo osservato: Temporale nelle vicinanze Temporale nelle vicinanze 12 62 1021 vento: Nord S 24
30 Agosto 2026 07:35 tempo osservato: Sereno Sereno 11 71 1022 vento: Nord SE 14.8
30 Agosto 2026 07:15 tempo osservato: Sereno Sereno 12 62 1022 vento: Nord SE 16.7
30 Agosto 2026 06:55 tempo osservato: Sereno Sereno 13 50 1021 vento: Nord S 25.9
30 Agosto 2026 06:35 tempo osservato: Sereno Sereno 12 62 1021 vento: Nord S 20.3
30 Agosto 2026 06:15 tempo osservato: Sereno Sereno 12 66 1021 vento: Nord S/SE 16.7
30 Agosto 2026 05:55 tempo osservato: Nuvoloso Nuvoloso 11 76 1021 vento: Nord SE 18.5
30 Agosto 2026 05:35 tempo osservato: Sereno Sereno 12 66 1021 vento: Nord SE 24
30 Agosto 2026 05:15 tempo osservato: Sereno Sereno 13 58 1021 vento: Nord S/SE 25.9
30 Agosto 2026 04:55 tempo osservato: Sereno Sereno 11 76 1021 vento: Nord E/SE 20.3
30 Agosto 2026 04:35 tempo osservato: Sereno Sereno 11 76 1021 vento: Nord SE 22.2
30 Agosto 2026 04:15 tempo osservato: Sereno Sereno 10 87 1022 vento: Nord SE 20.3
30 Agosto 2026 03:55 tempo osservato: Sereno Sereno 10 87 1021 vento: Nord E/SE 27.8
30 Agosto 2026 03:35 tempo osservato: Sereno Sereno 11 81 1021 vento: Nord SE 22.2
30 Agosto 2026 03:15 tempo osservato: Sereno Sereno 12 76 1021 vento: Nord SE 29.6
30 Agosto 2026 02:55 tempo osservato: Sereno Sereno 12 76 1021 vento: Nord SE 13
30 Agosto 2026 02:35 tempo osservato: Sereno Sereno 14 54 1021 vento: Nord S 16.7
30 Agosto 2026 02:15 tempo osservato: Sereno Sereno 13 66 1022 vento: Nord S/SE 13
30 Agosto 2026 01:55 tempo osservato: Sereno Sereno 13 62 1022 vento: Nord S 14.8
30 Agosto 2026 01:35 tempo osservato: Sereno Sereno 13 66 1022 vento: Nord S 13
30 Agosto 2026 01:15 tempo osservato: Sereno Sereno 12 76 1022 vento: Nord SE 9.3
30 Agosto 2026 00:55 tempo osservato: Sereno Sereno 12 76 1022 vento: Nord SE 11.1
30 Agosto 2026 00:35 tempo osservato: Sereno Sereno 12 76 1022 vento: Nord E/SE 14.8